sensor_id;sensor_type;location;lat;lon;timestamp;P1;durP1;ratioP1;P2;durP2;ratioP2
65533;SDS011;53640;55.838;37.184;2022-12-10T00:01:09;12.13;;;6.32;;
65533;SDS011;53640;55.838;37.184;2022-12-10T00:03:41;11.35;;;5.05;;
65533;SDS011;53640;55.838;37.184;2022-12-10T00:06:10;18.55;;;8.20;;
65533;SDS011;53640;55.838;37.184;2022-12-10T00:08:38;17.38;;;8.32;;
65533;SDS011;53640;55.838;37.184;2022-12-10T00:11:05;31.08;;;11.52;;
65533;SDS011;53640;55.838;37.184;2022-12-10T00:13:33;23.70;;;9.40;;
65533;SDS011;53640;55.838;37.184;2022-12-10T00:16:03;19.23;;;7.82;;
65533;SDS011;53640;55.838;37.184;2022-12-10T00:18:31;27.95;;;10.75;;
65533;SDS011;53640;55.838;37.184;2022-12-10T00:21:01;16.67;;;7.63;;
65533;SDS011;53640;55.838;37.184;2022-12-10T00:23:31;11.98;;;6.68;;
65533;SDS011;53640;55.838;37.184;2022-12-10T00:26:33;17.88;;;8.55;;
65533;SDS011;53640;55.838;37.184;2022-12-10T00:28:55;25.42;;;10.88;;
65533;SDS011;53640;55.838;37.184;2022-12-10T00:31:23;25.65;;;11.40;;
65533;SDS011;53640;55.838;37.184;2022-12-10T00:33:55;22.00;;;9.80;;
65533;SDS011;53640;55.838;37.184;2022-12-10T00:36:25;22.97;;;10.40;;
65533;SDS011;53640;55.838;37.184;2022-12-10T00:38:58;18.23;;;8.52;;
65533;SDS011;53640;55.838;37.184;2022-12-10T00:41:28;23.45;;;10.38;;
65533;SDS011;53640;55.838;37.184;2022-12-10T00:43:54;14.98;;;7.00;;
65533;SDS011;53640;55.838;37.184;2022-12-10T00:46:21;15.32;;;6.60;;
65533;SDS011;53640;55.838;37.184;2022-12-10T00:48:47;16.85;;;7.28;;
65533;SDS011;53640;55.838;37.184;2022-12-10T00:51:16;12.48;;;6.22;;
65533;SDS011;53640;55.838;37.184;2022-12-10T00:53:45;13.02;;;6.10;;
65533;SDS011;53640;55.838;37.184;2022-12-10T00:56:14;18.63;;;7.80;;
65533;SDS011;53640;55.838;37.184;2022-12-10T00:58:42;16.23;;;6.28;;
65533;SDS011;53640;55.838;37.184;2022-12-10T01:01:16;10.80;;;5.82;;
65533;SDS011;53640;55.838;37.184;2022-12-10T01:03:45;12.48;;;5.82;;
65533;SDS011;53640;55.838;37.184;2022-12-10T01:06:14;12.07;;;5.57;;
65533;SDS011;53640;55.838;37.184;2022-12-10T01:08:44;13.80;;;6.40;;
65533;SDS011;53640;55.838;37.184;2022-12-10T01:11:11;13.30;;;5.28;;
65533;SDS011;53640;55.838;37.184;2022-12-10T01:13:41;20.33;;;7.30;;
65533;SDS011;53640;55.838;37.184;2022-12-10T01:16:09;17.40;;;7.68;;
65533;SDS011;53640;55.838;37.184;2022-12-10T01:18:37;24.90;;;11.13;;
65533;SDS011;53640;55.838;37.184;2022-12-10T01:21:07;19.13;;;9.00;;
65533;SDS011;53640;55.838;37.184;2022-12-10T01:23:36;24.42;;;9.95;;
65533;SDS011;53640;55.838;37.184;2022-12-10T01:26:05;25.67;;;10.88;;
65533;SDS011;53640;55.838;37.184;2022-12-10T01:28:34;26.88;;;11.45;;
65533;SDS011;53640;55.838;37.184;2022-12-10T01:31:02;29.65;;;11.57;;
65533;SDS011;53640;55.838;37.184;2022-12-10T01:33:31;22.92;;;9.73;;
65533;SDS011;53640;55.838;37.184;2022-12-10T01:36:05;29.88;;;13.23;;
65533;SDS011;53640;55.838;37.184;2022-12-10T01:38:35;30.27;;;12.07;;
65533;SDS011;53640;55.838;37.184;2022-12-10T01:41:06;30.35;;;12.13;;
65533;SDS011;53640;55.838;37.184;2022-12-10T01:46:26;33.38;;;12.45;;
65533;SDS011;53640;55.838;37.184;2022-12-10T01:48:57;36.40;;;12.55;;
65533;SDS011;53640;55.838;37.184;2022-12-10T01:51:26;27.48;;;11.57;;
65533;SDS011;53640;55.838;37.184;2022-12-10T01:53:55;31.95;;;12.98;;
65533;SDS011;53640;55.838;37.184;2022-12-10T01:56:23;29.20;;;10.98;;
65533;SDS011;53640;55.838;37.184;2022-12-10T01:58:50;31.33;;;12.85;;
65533;SDS011;53640;55.838;37.184;2022-12-10T02:01:25;34.95;;;12.65;;
65533;SDS011;53640;55.838;37.184;2022-12-10T02:04:04;53.50;;;13.23;;
65533;SDS011;53640;55.838;37.184;2022-12-10T02:09:18;28.35;;;11.43;;
65533;SDS011;53640;55.838;37.184;2022-12-10T02:14:44;40.65;;;15.13;;
65533;SDS011;53640;55.838;37.184;2022-12-10T02:17:18;41.08;;;14.10;;
65533;SDS011;53640;55.838;37.184;2022-12-10T02:20:06;33.58;;;13.32;;
65533;SDS011;53640;55.838;37.184;2022-12-10T02:22:35;46.22;;;14.60;;
65533;SDS011;53640;55.838;37.184;2022-12-10T02:25:24;34.63;;;12.02;;
65533;SDS011;53640;55.838;37.184;2022-12-10T02:30:35;41.75;;;13.50;;
65533;SDS011;53640;55.838;37.184;2022-12-10T02:33:05;32.60;;;11.98;;
65533;SDS011;53640;55.838;37.184;2022-12-10T02:35:33;37.15;;;12.90;;
65533;SDS011;53640;55.838;37.184;2022-12-10T02:38:23;30.20;;;10.50;;
65533;SDS011;53640;55.838;37.184;2022-12-10T02:41:01;17.70;;;7.28;;
65533;SDS011;53640;55.838;37.184;2022-12-10T02:43:32;27.40;;;10.13;;
65533;SDS011;53640;55.838;37.184;2022-12-10T02:45:59;21.42;;;8.02;;
65533;SDS011;53640;55.838;37.184;2022-12-10T02:48:30;25.83;;;8.63;;
65533;SDS011;53640;55.838;37.184;2022-12-10T02:50:58;20.45;;;7.68;;
65533;SDS011;53640;55.838;37.184;2022-12-10T02:53:26;23.42;;;8.52;;
65533;SDS011;53640;55.838;37.184;2022-12-10T02:56:36;25.42;;;9.88;;
65533;SDS011;53640;55.838;37.184;2022-12-10T03:07:36;21.00;;;8.00;;
65533;SDS011;53640;55.838;37.184;2022-12-10T03:10:09;26.63;;;8.82;;
65533;SDS011;53640;55.838;37.184;2022-12-10T03:12:44;16.73;;;6.47;;
65533;SDS011;53640;55.838;37.184;2022-12-10T03:15:14;15.65;;;6.20;;
65533;SDS011;53640;55.838;37.184;2022-12-10T03:17:44;13.20;;;5.47;;
65533;SDS011;53640;55.838;37.184;2022-12-10T03:20:13;16.80;;;6.53;;
65533;SDS011;53640;55.838;37.184;2022-12-10T03:22:42;12.38;;;5.25;;
65533;SDS011;53640;55.838;37.184;2022-12-10T03:25:12;11.32;;;5.10;;
65533;SDS011;53640;55.838;37.184;2022-12-10T03:27:42;11.07;;;4.75;;
65533;SDS011;53640;55.838;37.184;2022-12-10T03:30:10;11.23;;;3.95;;
65533;SDS011;53640;55.838;37.184;2022-12-10T03:32:37;13.25;;;5.38;;
65533;SDS011;53640;55.838;37.184;2022-12-10T03:35:03;12.80;;;5.28;;
65533;SDS011;53640;55.838;37.184;2022-12-10T03:37:31;12.10;;;4.95;;
65533;SDS011;53640;55.838;37.184;2022-12-10T03:40:00;13.35;;;4.78;;
65533;SDS011;53640;55.838;37.184;2022-12-10T03:42:29;14.77;;;5.60;;
65533;SDS011;53640;55.838;37.184;2022-12-10T03:44:55;12.38;;;4.75;;
65533;SDS011;53640;55.838;37.184;2022-12-10T03:47:22;12.13;;;4.75;;
65533;SDS011;53640;55.838;37.184;2022-12-10T03:49:49;12.93;;;4.60;;
65533;SDS011;53640;55.838;37.184;2022-12-10T03:52:15;11.25;;;4.57;;
65533;SDS011;53640;55.838;37.184;2022-12-10T03:54:42;12.25;;;5.22;;
65533;SDS011;53640;55.838;37.184;2022-12-10T03:57:08;10.15;;;4.45;;
65533;SDS011;53640;55.838;37.184;2022-12-10T03:59:34;11.13;;;4.82;;
65533;SDS011;53640;55.838;37.184;2022-12-10T04:02:00;13.75;;;5.05;;
65533;SDS011;53640;55.838;37.184;2022-12-10T04:04:27;13.05;;;4.50;;
65533;SDS011;53640;55.838;37.184;2022-12-10T04:06:53;14.95;;;5.75;;
65533;SDS011;53640;55.838;37.184;2022-12-10T04:09:19;19.38;;;6.93;;
65533;SDS011;53640;55.838;37.184;2022-12-10T04:11:47;20.80;;;8.00;;
65533;SDS011;53640;55.838;37.184;2022-12-10T04:14:14;20.88;;;7.95;;
65533;SDS011;53640;55.838;37.184;2022-12-10T04:16:59;26.00;;;7.82;;
65533;SDS011;53640;55.838;37.184;2022-12-10T04:19:25;20.48;;;6.50;;
65533;SDS011;53640;55.838;37.184;2022-12-10T04:21:51;18.23;;;6.60;;
65533;SDS011;53640;55.838;37.184;2022-12-10T04:24:36;21.55;;;8.13;;
65533;SDS011;53640;55.838;37.184;2022-12-10T04:27:26;15.43;;;6.47;;
65533;SDS011;53640;55.838;37.184;2022-12-10T04:29:54;16.13;;;6.43;;
65533;SDS011;53640;55.838;37.184;2022-12-10T04:32:23;19.25;;;7.35;;
65533;SDS011;53640;55.838;37.184;2022-12-10T04:34:51;23.75;;;9.80;;
65533;SDS011;53640;55.838;37.184;2022-12-10T04:37:17;17.55;;;6.95;;
65533;SDS011;53640;55.838;37.184;2022-12-10T04:39:44;29.70;;;11.00;;
65533;SDS011;53640;55.838;37.184;2022-12-10T04:42:11;27.20;;;9.73;;
65533;SDS011;53640;55.838;37.184;2022-12-10T04:44:38;27.70;;;9.43;;
65533;SDS011;53640;55.838;37.184;2022-12-10T04:47:05;29.20;;;10.52;;
65533;SDS011;53640;55.838;37.184;2022-12-10T04:49:32;22.60;;;9.88;;
65533;SDS011;53640;55.838;37.184;2022-12-10T04:51:59;34.88;;;10.02;;
65533;SDS011;53640;55.838;37.184;2022-12-10T04:54:26;23.15;;;9.65;;
65533;SDS011;53640;55.838;37.184;2022-12-10T04:56:53;22.98;;;8.98;;
65533;SDS011;53640;55.838;37.184;2022-12-10T04:59:19;22.90;;;9.35;;
65533;SDS011;53640;55.838;37.184;2022-12-10T05:01:46;23.55;;;9.38;;
65533;SDS011;53640;55.838;37.184;2022-12-10T05:04:14;23.33;;;8.82;;
65533;SDS011;53640;55.838;37.184;2022-12-10T05:06:41;22.38;;;8.73;;
65533;SDS011;53640;55.838;37.184;2022-12-10T05:09:09;27.25;;;10.38;;
65533;SDS011;53640;55.838;37.184;2022-12-10T05:11:37;25.95;;;10.13;;
65533;SDS011;53640;55.838;37.184;2022-12-10T05:14:04;25.45;;;9.43;;
65533;SDS011;53640;55.838;37.184;2022-12-10T05:16:31;23.77;;;8.80;;
65533;SDS011;53640;55.838;37.184;2022-12-10T05:18:59;17.85;;;7.07;;
65533;SDS011;53640;55.838;37.184;2022-12-10T05:21:28;12.80;;;6.32;;
65533;SDS011;53640;55.838;37.184;2022-12-10T05:24:15;22.00;;;8.32;;
65533;SDS011;53640;55.838;37.184;2022-12-10T05:26:42;24.27;;;9.38;;
65533;SDS011;53640;55.838;37.184;2022-12-10T05:29:09;15.82;;;6.68;;
65533;SDS011;53640;55.838;37.184;2022-12-10T05:31:37;13.05;;;6.22;;
65533;SDS011;53640;55.838;37.184;2022-12-10T05:34:03;14.85;;;5.90;;
65533;SDS011;53640;55.838;37.184;2022-12-10T05:36:30;20.48;;;6.75;;
65533;SDS011;53640;55.838;37.184;2022-12-10T05:38:57;15.18;;;6.18;;
65533;SDS011;53640;55.838;37.184;2022-12-10T05:41:26;20.67;;;7.85;;
65533;SDS011;53640;55.838;37.184;2022-12-10T05:43:54;19.05;;;7.65;;
65533;SDS011;53640;55.838;37.184;2022-12-10T05:46:23;18.23;;;8.07;;
65533;SDS011;53640;55.838;37.184;2022-12-10T05:48:52;21.20;;;9.18;;
65533;SDS011;53640;55.838;37.184;2022-12-10T05:51:20;25.13;;;8.48;;
65533;SDS011;53640;55.838;37.184;2022-12-10T05:53:50;15.13;;;7.47;;
65533;SDS011;53640;55.838;37.184;2022-12-10T05:56:19;17.00;;;6.93;;
65533;SDS011;53640;55.838;37.184;2022-12-10T05:58:47;15.30;;;6.75;;
65533;SDS011;53640;55.838;37.184;2022-12-10T06:01:18;13.45;;;5.25;;
65533;SDS011;53640;55.838;37.184;2022-12-10T06:03:48;20.38;;;8.63;;
65533;SDS011;53640;55.838;37.184;2022-12-10T06:06:22;13.68;;;5.80;;
65533;SDS011;53640;55.838;37.184;2022-12-10T06:08:49;15.25;;;6.28;;
65533;SDS011;53640;55.838;37.184;2022-12-10T06:11:16;9.98;;;5.00;;
65533;SDS011;53640;55.838;37.184;2022-12-10T06:13:43;16.10;;;6.15;;
65533;SDS011;53640;55.838;37.184;2022-12-10T06:16:11;23.33;;;7.15;;
65533;SDS011;53640;55.838;37.184;2022-12-10T06:18:38;24.42;;;8.10;;
65533;SDS011;53640;55.838;37.184;2022-12-10T06:21:05;41.85;;;16.05;;
65533;SDS011;53640;55.838;37.184;2022-12-10T06:23:33;35.35;;;13.70;;
65533;SDS011;53640;55.838;37.184;2022-12-10T06:26:07;32.10;;;11.63;;
65533;SDS011;53640;55.838;37.184;2022-12-10T06:28:36;17.92;;;8.00;;
65533;SDS011;53640;55.838;37.184;2022-12-10T06:31:03;19.30;;;9.20;;
65533;SDS011;53640;55.838;37.184;2022-12-10T06:33:30;25.17;;;10.68;;
65533;SDS011;53640;55.838;37.184;2022-12-10T06:35:57;21.35;;;9.80;;
65533;SDS011;53640;55.838;37.184;2022-12-10T06:38:24;26.27;;;9.27;;
65533;SDS011;53640;55.838;37.184;2022-12-10T06:40:51;21.02;;;9.07;;
65533;SDS011;53640;55.838;37.184;2022-12-10T06:43:18;18.58;;;8.10;;
65533;SDS011;53640;55.838;37.184;2022-12-10T06:45:45;23.45;;;9.32;;
65533;SDS011;53640;55.838;37.184;2022-12-10T06:48:12;22.05;;;9.20;;
65533;SDS011;53640;55.838;37.184;2022-12-10T06:50:38;23.48;;;8.20;;
65533;SDS011;53640;55.838;37.184;2022-12-10T06:53:04;21.45;;;9.45;;
65533;SDS011;53640;55.838;37.184;2022-12-10T06:55:31;18.90;;;9.07;;
65533;SDS011;53640;55.838;37.184;2022-12-10T06:57:58;25.35;;;9.40;;
65533;SDS011;53640;55.838;37.184;2022-12-10T07:00:24;16.92;;;7.93;;
65533;SDS011;53640;55.838;37.184;2022-12-10T07:02:50;26.13;;;10.45;;
65533;SDS011;53640;55.838;37.184;2022-12-10T07:05:20;21.80;;;8.43;;
65533;SDS011;53640;55.838;37.184;2022-12-10T07:07:46;17.58;;;7.55;;
65533;SDS011;53640;55.838;37.184;2022-12-10T07:10:13;18.88;;;7.82;;
65533;SDS011;53640;55.838;37.184;2022-12-10T07:12:40;21.42;;;8.85;;
65533;SDS011;53640;55.838;37.184;2022-12-10T07:15:06;24.08;;;9.77;;
65533;SDS011;53640;55.838;37.184;2022-12-10T07:17:33;21.45;;;8.68;;
65533;SDS011;53640;55.838;37.184;2022-12-10T07:19:59;14.65;;;6.82;;
65533;SDS011;53640;55.838;37.184;2022-12-10T07:22:26;20.42;;;8.13;;
65533;SDS011;53640;55.838;37.184;2022-12-10T07:24:52;19.90;;;8.18;;
65533;SDS011;53640;55.838;37.184;2022-12-10T07:27:18;13.32;;;6.95;;
65533;SDS011;53640;55.838;37.184;2022-12-10T07:29:44;15.25;;;7.22;;
65533;SDS011;53640;55.838;37.184;2022-12-10T07:32:12;14.50;;;6.93;;
65533;SDS011;53640;55.838;37.184;2022-12-10T07:34:38;17.13;;;7.68;;
65533;SDS011;53640;55.838;37.184;2022-12-10T07:37:04;21.98;;;10.63;;
65533;SDS011;53640;55.838;37.184;2022-12-10T07:39:30;21.08;;;9.38;;
65533;SDS011;53640;55.838;37.184;2022-12-10T07:41:57;20.10;;;9.32;;
65533;SDS011;53640;55.838;37.184;2022-12-10T07:44:25;22.75;;;9.60;;
65533;SDS011;53640;55.838;37.184;2022-12-10T07:46:52;15.45;;;8.20;;
65533;SDS011;53640;55.838;37.184;2022-12-10T07:49:19;16.65;;;7.47;;
65533;SDS011;53640;55.838;37.184;2022-12-10T07:51:46;17.13;;;8.43;;
65533;SDS011;53640;55.838;37.184;2022-12-10T07:54:14;31.90;;;12.15;;
65533;SDS011;53640;55.838;37.184;2022-12-10T07:56:40;39.85;;;16.08;;
65533;SDS011;53640;55.838;37.184;2022-12-10T07:59:07;44.55;;;18.75;;
65533;SDS011;53640;55.838;37.184;2022-12-10T08:01:33;47.05;;;18.25;;
65533;SDS011;53640;55.838;37.184;2022-12-10T08:04:00;55.15;;;19.92;;
65533;SDS011;53640;55.838;37.184;2022-12-10T08:06:27;45.83;;;17.88;;
65533;SDS011;53640;55.838;37.184;2022-12-10T08:08:54;55.90;;;19.98;;
65533;SDS011;53640;55.838;37.184;2022-12-10T08:11:21;40.90;;;16.80;;
65533;SDS011;53640;55.838;37.184;2022-12-10T08:13:48;62.60;;;20.42;;
65533;SDS011;53640;55.838;37.184;2022-12-10T08:16:16;50.85;;;21.05;;
65533;SDS011;53640;55.838;37.184;2022-12-10T08:18:44;55.28;;;20.85;;
65533;SDS011;53640;55.838;37.184;2022-12-10T08:21:12;68.50;;;23.35;;
65533;SDS011;53640;55.838;37.184;2022-12-10T08:23:41;65.97;;;22.48;;
65533;SDS011;53640;55.838;37.184;2022-12-10T08:26:12;55.55;;;21.25;;
65533;SDS011;53640;55.838;37.184;2022-12-10T08:28:43;51.45;;;20.38;;
65533;SDS011;53640;55.838;37.184;2022-12-10T08:31:10;47.58;;;18.88;;
65533;SDS011;53640;55.838;37.184;2022-12-10T08:33:38;58.15;;;23.25;;
65533;SDS011;53640;55.838;37.184;2022-12-10T08:36:05;51.92;;;21.85;;
65533;SDS011;53640;55.838;37.184;2022-12-10T08:38:33;62.28;;;23.73;;
65533;SDS011;53640;55.838;37.184;2022-12-10T08:41:07;65.70;;;24.30;;
65533;SDS011;53640;55.838;37.184;2022-12-10T08:43:36;57.83;;;21.85;;
65533;SDS011;53640;55.838;37.184;2022-12-10T08:46:04;57.72;;;21.00;;
65533;SDS011;53640;55.838;37.184;2022-12-10T08:48:30;52.78;;;21.10;;
65533;SDS011;53640;55.838;37.184;2022-12-10T08:51:01;65.68;;;24.63;;
65533;SDS011;53640;55.838;37.184;2022-12-10T08:53:31;68.40;;;25.20;;
65533;SDS011;53640;55.838;37.184;2022-12-10T08:55:57;70.95;;;26.17;;
65533;SDS011;53640;55.838;37.184;2022-12-10T08:58:23;68.80;;;26.65;;
65533;SDS011;53640;55.838;37.184;2022-12-10T09:00:50;64.22;;;25.23;;
65533;SDS011;53640;55.838;37.184;2022-12-10T09:03:16;70.22;;;26.35;;
65533;SDS011;53640;55.838;37.184;2022-12-10T09:05:43;59.33;;;23.60;;
65533;SDS011;53640;55.838;37.184;2022-12-10T09:08:10;61.55;;;23.88;;
65533;SDS011;53640;55.838;37.184;2022-12-10T09:10:39;54.30;;;21.63;;
65533;SDS011;53640;55.838;37.184;2022-12-10T09:13:06;54.97;;;22.27;;
65533;SDS011;53640;55.838;37.184;2022-12-10T09:15:33;61.35;;;23.52;;
65533;SDS011;53640;55.838;37.184;2022-12-10T09:17:59;73.60;;;25.60;;
65533;SDS011;53640;55.838;37.184;2022-12-10T09:20:26;49.88;;;21.35;;
65533;SDS011;53640;55.838;37.184;2022-12-10T09:22:52;62.75;;;25.45;;
65533;SDS011;53640;55.838;37.184;2022-12-10T09:25:18;61.55;;;24.25;;
65533;SDS011;53640;55.838;37.184;2022-12-10T09:27:47;65.82;;;24.65;;
65533;SDS011;53640;55.838;37.184;2022-12-10T09:30:14;58.53;;;25.40;;
65533;SDS011;53640;55.838;37.184;2022-12-10T09:32:40;60.25;;;24.58;;
65533;SDS011;53640;55.838;37.184;2022-12-10T09:35:07;61.08;;;23.25;;
65533;SDS011;53640;55.838;37.184;2022-12-10T09:37:33;69.03;;;27.50;;
65533;SDS011;53640;55.838;37.184;2022-12-10T09:40:00;65.43;;;25.67;;
65533;SDS011;53640;55.838;37.184;2022-12-10T09:42:42;60.20;;;24.23;;
65533;SDS011;53640;55.838;37.184;2022-12-10T09:53:21;62.90;;;25.25;;
65533;SDS011;53640;55.838;37.184;2022-12-10T09:55:49;55.88;;;21.65;;
65533;SDS011;53640;55.838;37.184;2022-12-10T09:58:18;56.72;;;23.42;;
65533;SDS011;53640;55.838;37.184;2022-12-10T10:00:48;70.43;;;28.27;;
65533;SDS011;53640;55.838;37.184;2022-12-10T10:03:18;69.65;;;27.48;;
65533;SDS011;53640;55.838;37.184;2022-12-10T10:05:48;71.90;;;26.63;;
65533;SDS011;53640;55.838;37.184;2022-12-10T10:11:00;74.50;;;26.20;;
65533;SDS011;53640;55.838;37.184;2022-12-10T10:13:32;79.97;;;30.90;;
65533;SDS011;53640;55.838;37.184;2022-12-10T10:16:23;59.70;;;23.90;;
65533;SDS011;53640;55.838;37.184;2022-12-10T10:21:35;65.75;;;24.08;;
65533;SDS011;53640;55.838;37.184;2022-12-10T10:24:05;63.88;;;26.27;;
65533;SDS011;53640;55.838;37.184;2022-12-10T10:26:32;67.38;;;24.20;;
65533;SDS011;53640;55.838;37.184;2022-12-10T10:29:00;53.25;;;21.00;;
65533;SDS011;53640;55.838;37.184;2022-12-10T10:31:29;58.53;;;21.45;;
65533;SDS011;53640;55.838;37.184;2022-12-10T10:33:58;59.55;;;24.10;;
65533;SDS011;53640;55.838;37.184;2022-12-10T10:36:31;62.55;;;23.70;;
65533;SDS011;53640;55.838;37.184;2022-12-10T10:39:11;56.33;;;20.83;;
65533;SDS011;53640;55.838;37.184;2022-12-10T10:41:42;59.03;;;21.70;;
65533;SDS011;53640;55.838;37.184;2022-12-10T10:44:16;56.67;;;21.92;;
65533;SDS011;53640;55.838;37.184;2022-12-10T10:46:47;53.08;;;20.75;;
65533;SDS011;53640;55.838;37.184;2022-12-10T10:49:21;53.63;;;20.30;;
65533;SDS011;53640;55.838;37.184;2022-12-10T10:51:49;65.05;;;22.23;;
65533;SDS011;53640;55.838;37.184;2022-12-10T10:57:01;49.95;;;18.48;;
65533;SDS011;53640;55.838;37.184;2022-12-10T10:59:31;41.72;;;16.88;;
65533;SDS011;53640;55.838;37.184;2022-12-10T11:02:04;44.63;;;16.27;;
65533;SDS011;53640;55.838;37.184;2022-12-10T11:04:43;45.58;;;17.73;;
65533;SDS011;53640;55.838;37.184;2022-12-10T11:07:19;43.85;;;16.73;;
65533;SDS011;53640;55.838;37.184;2022-12-10T11:09:47;61.95;;;21.80;;
65533;SDS011;53640;55.838;37.184;2022-12-10T11:12:23;65.47;;;24.17;;
65533;SDS011;53640;55.838;37.184;2022-12-10T11:14:56;73.57;;;27.35;;
65533;SDS011;53640;55.838;37.184;2022-12-10T11:17:23;84.68;;;30.17;;
65533;SDS011;53640;55.838;37.184;2022-12-10T11:22:25;81.65;;;28.67;;
65533;SDS011;53640;55.838;37.184;2022-12-10T11:24:56;84.78;;;32.88;;
65533;SDS011;53640;55.838;37.184;2022-12-10T11:30:10;80.07;;;28.50;;
65533;SDS011;53640;55.838;37.184;2022-12-10T11:36:02;91.38;;;31.63;;
65533;SDS011;53640;55.838;37.184;2022-12-10T11:38:47;101.47;;;33.03;;
65533;SDS011;53640;55.838;37.184;2022-12-10T11:41:36;76.32;;;25.85;;
65533;SDS011;53640;55.838;37.184;2022-12-10T11:44:16;67.13;;;25.45;;
65533;SDS011;53640;55.838;37.184;2022-12-10T11:46:57;61.03;;;23.63;;
65533;SDS011;53640;55.838;37.184;2022-12-10T11:49:32;57.08;;;21.65;;
65533;SDS011;53640;55.838;37.184;2022-12-10T12:00:14;75.90;;;28.50;;
65533;SDS011;53640;55.838;37.184;2022-12-10T12:08:29;42.40;;;16.15;;
65533;SDS011;53640;55.838;37.184;2022-12-10T12:11:17;37.15;;;15.38;;
65533;SDS011;53640;55.838;37.184;2022-12-10T12:14:04;46.65;;;17.73;;
65533;SDS011;53640;55.838;37.184;2022-12-10T12:16:50;53.95;;;19.08;;
65533;SDS011;53640;55.838;37.184;2022-12-10T12:20:00;39.75;;;15.48;;
65533;SDS011;53640;55.838;37.184;2022-12-10T12:22:35;61.90;;;22.00;;
65533;SDS011;53640;55.838;37.184;2022-12-10T12:25:05;83.57;;;30.10;;
65533;SDS011;53640;55.838;37.184;2022-12-10T12:27:48;74.10;;;28.60;;
65533;SDS011;53640;55.838;37.184;2022-12-10T12:30:22;74.50;;;26.67;;
65533;SDS011;53640;55.838;37.184;2022-12-10T12:35:25;70.30;;;25.85;;
65533;SDS011;53640;55.838;37.184;2022-12-10T12:37:59;75.22;;;27.90;;
65533;SDS011;53640;55.838;37.184;2022-12-10T12:40:43;68.93;;;25.67;;
65533;SDS011;53640;55.838;37.184;2022-12-10T12:43:58;64.65;;;23.52;;
65533;SDS011;53640;55.838;37.184;2022-12-10T12:46:38;70.97;;;27.50;;
65533;SDS011;53640;55.838;37.184;2022-12-10T12:54:51;75.05;;;29.27;;
65533;SDS011;53640;55.838;37.184;2022-12-10T12:57:30;71.10;;;26.90;;
65533;SDS011;53640;55.838;37.184;2022-12-10T13:00:10;68.63;;;27.63;;
65533;SDS011;53640;55.838;37.184;2022-12-10T13:37:36;63.05;;;24.88;;
65533;SDS011;53640;55.838;37.184;2022-12-10T13:40:40;59.60;;;24.45;;
65533;SDS011;53640;55.838;37.184;2022-12-10T13:43:35;63.63;;;26.10;;
65533;SDS011;53640;55.838;37.184;2022-12-10T13:46:31;65.05;;;26.52;;
65533;SDS011;53640;55.838;37.184;2022-12-10T13:49:00;57.45;;;23.50;;
65533;SDS011;53640;55.838;37.184;2022-12-10T13:51:36;58.20;;;22.23;;
65533;SDS011;53640;55.838;37.184;2022-12-10T13:59:35;59.88;;;24.73;;
65533;SDS011;53640;55.838;37.184;2022-12-10T14:05:27;52.20;;;22.88;;
65533;SDS011;53640;55.838;37.184;2022-12-10T14:08:12;51.97;;;20.60;;
65533;SDS011;53640;55.838;37.184;2022-12-10T14:10:42;51.35;;;22.27;;
65533;SDS011;53640;55.838;37.184;2022-12-10T14:13:13;62.97;;;23.92;;
65533;SDS011;53640;55.838;37.184;2022-12-10T14:15:47;54.33;;;22.95;;
65533;SDS011;53640;55.838;37.184;2022-12-10T14:18:20;48.85;;;22.17;;
65533;SDS011;53640;55.838;37.184;2022-12-10T14:20:52;54.03;;;22.90;;
65533;SDS011;53640;55.838;37.184;2022-12-10T14:23:30;48.00;;;19.73;;
65533;SDS011;53640;55.838;37.184;2022-12-10T14:28:42;55.13;;;22.02;;
65533;SDS011;53640;55.838;37.184;2022-12-10T14:31:30;51.03;;;21.40;;
65533;SDS011;53640;55.838;37.184;2022-12-10T14:34:00;52.42;;;21.67;;
65533;SDS011;53640;55.838;37.184;2022-12-10T14:36:31;56.90;;;22.50;;
65533;SDS011;53640;55.838;37.184;2022-12-10T14:39:00;51.58;;;22.42;;
65533;SDS011;53640;55.838;37.184;2022-12-10T14:41:28;56.95;;;21.77;;
65533;SDS011;53640;55.838;37.184;2022-12-10T14:43:57;56.45;;;22.23;;
65533;SDS011;53640;55.838;37.184;2022-12-10T14:46:30;47.53;;;21.83;;
65533;SDS011;53640;55.838;37.184;2022-12-10T14:48:58;61.97;;;22.02;;
65533;SDS011;53640;55.838;37.184;2022-12-10T14:51:25;45.85;;;19.88;;
65533;SDS011;53640;55.838;37.184;2022-12-10T14:53:57;52.40;;;20.35;;
65533;SDS011;53640;55.838;37.184;2022-12-10T15:01:33;39.33;;;17.30;;
65533;SDS011;53640;55.838;37.184;2022-12-10T15:04:04;46.13;;;19.77;;
65533;SDS011;53640;55.838;37.184;2022-12-10T15:06:35;51.53;;;21.67;;
65533;SDS011;53640;55.838;37.184;2022-12-10T15:09:03;43.90;;;17.83;;
65533;SDS011;53640;55.838;37.184;2022-12-10T15:11:31;52.40;;;21.02;;
65533;SDS011;53640;55.838;37.184;2022-12-10T15:13:58;49.97;;;21.30;;
65533;SDS011;53640;55.838;37.184;2022-12-10T15:21:43;46.78;;;20.02;;
65533;SDS011;53640;55.838;37.184;2022-12-10T15:24:15;50.92;;;22.77;;
65533;SDS011;53640;55.838;37.184;2022-12-10T15:26:45;56.22;;;23.23;;
65533;SDS011;53640;55.838;37.184;2022-12-10T15:32:10;45.95;;;20.23;;
65533;SDS011;53640;55.838;37.184;2022-12-10T15:34:53;52.03;;;21.95;;
65533;SDS011;53640;55.838;37.184;2022-12-10T15:37:33;46.78;;;21.52;;
65533;SDS011;53640;55.838;37.184;2022-12-10T15:40:03;53.57;;;23.10;;
65533;SDS011;53640;55.838;37.184;2022-12-10T15:42:41;52.78;;;23.90;;
65533;SDS011;53640;55.838;37.184;2022-12-10T15:45:20;55.10;;;24.48;;
65533;SDS011;53640;55.838;37.184;2022-12-10T15:47:49;63.53;;;24.77;;
65533;SDS011;53640;55.838;37.184;2022-12-10T15:50:15;59.13;;;24.83;;
65533;SDS011;53640;55.838;37.184;2022-12-10T15:52:42;53.67;;;24.08;;
65533;SDS011;53640;55.838;37.184;2022-12-10T15:55:12;50.90;;;21.20;;
65533;SDS011;53640;55.838;37.184;2022-12-10T15:57:39;46.67;;;20.92;;
65533;SDS011;53640;55.838;37.184;2022-12-10T16:02:53;57.08;;;23.15;;
65533;SDS011;53640;55.838;37.184;2022-12-10T16:05:23;51.38;;;23.60;;
65533;SDS011;53640;55.838;37.184;2022-12-10T16:08:17;50.53;;;22.45;;
65533;SDS011;53640;55.838;37.184;2022-12-10T16:10:46;40.65;;;17.50;;
65533;SDS011;53640;55.838;37.184;2022-12-10T16:15:52;46.97;;;21.45;;
65533;SDS011;53640;55.838;37.184;2022-12-10T16:18:19;34.28;;;16.40;;
65533;SDS011;53640;55.838;37.184;2022-12-10T16:20:46;42.35;;;19.90;;
65533;SDS011;53640;55.838;37.184;2022-12-10T16:23:12;43.92;;;19.52;;
65533;SDS011;53640;55.838;37.184;2022-12-10T16:25:40;48.03;;;21.23;;
65533;SDS011;53640;55.838;37.184;2022-12-10T16:28:16;48.97;;;20.05;;
65533;SDS011;53640;55.838;37.184;2022-12-10T16:30:45;44.58;;;20.42;;
65533;SDS011;53640;55.838;37.184;2022-12-10T16:33:12;35.75;;;16.33;;
65533;SDS011;53640;55.838;37.184;2022-12-10T16:35:38;34.28;;;15.70;;
65533;SDS011;53640;55.838;37.184;2022-12-10T16:38:05;46.08;;;21.08;;
65533;SDS011;53640;55.838;37.184;2022-12-10T16:40:32;42.58;;;18.02;;
65533;SDS011;53640;55.838;37.184;2022-12-10T16:42:58;39.70;;;16.50;;
65533;SDS011;53640;55.838;37.184;2022-12-10T16:45:26;27.52;;;12.48;;